createdAt,value
2023-02-24T00:00:34.704Z,10.00
2023-02-24T00:03:06.495Z,10.00
2023-02-24T00:05:36.351Z,10.00
2023-02-24T00:08:03.681Z,10.00
2023-02-24T00:10:30.981Z,9.90
2023-02-24T00:12:58.155Z,9.90
2023-02-24T00:15:25.785Z,9.90
2023-02-24T00:17:52.846Z,9.90
2023-02-24T00:20:20.412Z,9.90
2023-02-24T00:22:47.494Z,9.90
2023-02-24T00:25:14.709Z,9.80
2023-02-24T00:27:42.651Z,9.80
2023-02-24T00:30:12.016Z,9.80
2023-02-24T00:32:40.066Z,9.80
2023-02-24T00:35:09.092Z,9.80
2023-02-24T00:37:36.379Z,9.80
2023-02-24T00:40:11.073Z,9.70
2023-02-24T00:42:39.951Z,9.70
2023-02-24T00:45:10.339Z,9.70
2023-02-24T00:47:40.096Z,9.70
2023-02-24T00:50:09.105Z,9.60
2023-02-24T00:52:39.498Z,9.60
2023-02-24T00:55:14.056Z,9.60
2023-02-24T00:57:41.953Z,9.50
2023-02-24T01:00:13.255Z,9.50
2023-02-24T01:02:40.698Z,9.40
2023-02-24T01:05:09.545Z,9.40
2023-02-24T01:07:36.755Z,9.40
2023-02-24T01:10:08.609Z,9.30
2023-02-24T01:12:38.831Z,9.30
2023-02-24T01:15:09.274Z,9.30
2023-02-24T01:17:37.869Z,9.20
2023-02-24T01:20:18.008Z,9.20
2023-02-24T01:22:53.623Z,9.20
2023-02-24T01:25:21.301Z,9.20
2023-02-24T01:27:48.862Z,9.20
2023-02-24T01:30:20.646Z,9.10
2023-02-24T01:32:48.438Z,9.10
2023-02-24T01:35:16.196Z,9.10
2023-02-24T01:37:43.377Z,9.00
2023-02-24T01:40:18.791Z,9.00
2023-02-24T01:42:47.714Z,9.00
2023-02-24T01:45:29.251Z,8.90
2023-02-24T01:48:06.767Z,8.90
2023-02-24T01:50:36.941Z,8.90
2023-02-24T01:53:08.426Z,8.90
2023-02-24T01:55:50.735Z,8.90
2023-02-24T01:58:28.771Z,8.80
2023-02-24T02:00:57.867Z,8.80
2023-02-24T02:03:37.897Z,8.80
2023-02-24T02:06:13.594Z,8.80
2023-02-24T02:08:42.518Z,8.80
2023-02-24T02:11:20.501Z,8.80
2023-02-24T02:13:50.544Z,8.80
2023-02-24T02:16:27.864Z,8.80
2023-02-24T02:19:40.869Z,8.80
2023-02-24T02:22:14.263Z,8.80
2023-02-24T02:25:09.564Z,8.80
2023-02-24T02:28:12.895Z,8.80
2023-02-24T02:31:12.869Z,8.90
2023-02-24T02:34:08.416Z,8.80
2023-02-24T02:36:56.888Z,8.90
2023-02-24T02:39:33.649Z,8.90
2023-02-24T02:42:24.362Z,8.80
2023-02-24T02:45:09.899Z,8.90
2023-02-24T02:48:06.424Z,8.80
2023-02-24T02:51:04.331Z,8.80
2023-02-24T02:54:11.793Z,8.80
2023-02-24T02:56:53.966Z,8.70
2023-02-24T02:59:25.990Z,8.70
2023-02-24T03:02:01.201Z,8.70
2023-02-24T03:04:30.218Z,8.60
2023-02-24T03:07:02.346Z,8.60
2023-02-24T03:09:35.917Z,8.60
2023-02-24T03:12:12.490Z,8.50
2023-02-24T03:14:52.526Z,8.50
2023-02-24T03:17:27.240Z,8.40
2023-02-24T03:20:17.585Z,8.40
2023-02-24T03:22:55.992Z,8.30
2023-02-24T03:25:33.902Z,8.20
2023-02-24T03:28:12.204Z,8.20
2023-02-24T03:30:49.069Z,8.10
2023-02-24T03:33:20.018Z,8.10
2023-02-24T03:35:53.831Z,8.10
2023-02-24T03:38:24.522Z,8.00
2023-02-24T03:40:55.031Z,8.00
2023-02-24T03:43:32.623Z,7.90
2023-02-24T03:46:01.430Z,7.90
2023-02-24T03:48:29.473Z,7.90
2023-02-24T03:50:59.388Z,7.90
2023-02-24T03:53:30.846Z,7.90
2023-02-24T03:56:43.332Z,7.90
2023-02-24T03:59:42.275Z,7.90
2023-02-24T04:02:23.998Z,7.80
2023-02-24T04:05:09.681Z,7.90
2023-02-24T04:07:44.913Z,7.90
2023-02-24T04:10:22.629Z,7.90
2023-02-24T04:13:10.346Z,7.90
2023-02-24T04:16:05.930Z,7.90
2023-02-24T04:18:34.005Z,7.90
2023-02-24T04:21:05.468Z,7.90
2023-02-24T04:23:40.029Z,7.90
2023-02-24T04:26:09.614Z,8.00
2023-02-24T04:28:36.838Z,8.00
2023-02-24T04:31:11.371Z,8.00
2023-02-24T04:33:38.859Z,8.00
2023-02-24T04:36:09.002Z,7.90
2023-02-24T04:38:36.846Z,8.00
2023-02-24T04:41:04.365Z,7.90
2023-02-24T04:43:31.702Z,7.90
2023-02-24T04:46:07.673Z,7.90
2023-02-24T04:48:35.722Z,7.90
2023-02-24T04:51:03.868Z,7.90
2023-02-24T04:53:31.452Z,7.90
2023-02-24T04:56:08.888Z,7.90
2023-02-24T04:58:39.809Z,7.90
2023-02-24T05:01:10.763Z,7.90
2023-02-24T05:03:42.310Z,7.90
2023-02-24T05:06:16.730Z,7.90
2023-02-24T05:08:44.697Z,7.90
2023-02-24T05:11:16.828Z,7.90
2023-02-24T05:13:48.197Z,7.90
2023-02-24T05:16:20.573Z,7.90
2023-02-24T05:18:48.276Z,7.90
2023-02-24T05:21:36.655Z,7.90
2023-02-24T05:24:08.348Z,7.90
2023-02-24T05:26:38.586Z,7.90
2023-02-24T05:29:07.559Z,7.90
2023-02-24T05:31:35.187Z,7.90
2023-02-24T05:34:08.223Z,7.90
2023-02-24T05:36:45.867Z,7.90
2023-02-24T05:39:19.207Z,7.90
2023-02-24T05:41:48.995Z,7.90
2023-02-24T05:44:23.534Z,7.90
2023-02-24T05:46:58.917Z,7.90
2023-02-24T05:49:33.038Z,7.90
2023-02-24T05:52:07.763Z,7.90
2023-02-24T05:54:40.025Z,7.90
2023-02-24T05:57:13.998Z,7.90
2023-02-24T05:59:42.919Z,7.90
2023-02-24T06:02:13.808Z,7.90
2023-02-24T06:04:51.216Z,7.90
2023-02-24T06:07:27.102Z,7.90
2023-02-24T06:09:57.866Z,7.90
2023-02-24T06:12:31.854Z,7.90
2023-02-24T06:14:59.572Z,7.90
2023-02-24T06:17:28.320Z,7.90
2023-02-24T06:19:56.051Z,7.90
2023-02-24T06:22:26.228Z,7.90
2023-02-24T06:24:55.199Z,7.80
2023-02-24T06:27:24.890Z,7.80
2023-02-24T06:29:54.746Z,7.80
2023-02-24T06:32:26.545Z,7.80
2023-02-24T06:34:54.946Z,7.80
2023-02-24T06:37:25.006Z,7.80
2023-02-24T06:39:56.029Z,7.80
2023-02-24T06:42:23.280Z,7.80
2023-02-24T06:44:50.437Z,7.90
2023-02-24T06:47:18.096Z,7.80
2023-02-24T06:49:45.431Z,7.90
2023-02-24T06:52:18.590Z,7.90
2023-02-24T06:54:49.785Z,7.90
2023-02-24T06:57:17.170Z,7.90
2023-02-24T06:59:44.270Z,7.90
2023-02-24T07:02:11.568Z,8.00
2023-02-24T07:04:44.030Z,8.00
2023-02-24T07:07:14.863Z,8.10
2023-02-24T07:09:42.750Z,8.10
2023-02-24T07:12:12.710Z,8.10
2023-02-24T07:14:40.703Z,8.20
2023-02-24T07:17:08.417Z,8.30
2023-02-24T07:19:36.842Z,8.30
2023-02-24T07:22:04.641Z,8.30
2023-02-24T07:24:36.730Z,8.40
2023-02-24T07:27:11.546Z,8.50
2023-02-24T07:29:39.932Z,8.50
2023-02-24T07:32:09.388Z,8.60
2023-02-24T07:34:40.534Z,8.70
2023-02-24T07:37:10.163Z,8.70
2023-02-24T07:39:39.461Z,8.80
2023-02-24T07:42:10.088Z,8.90
2023-02-24T07:44:39.017Z,8.90
2023-02-24T07:47:08.348Z,9.00
2023-02-24T07:49:40.992Z,9.10
2023-02-24T07:52:09.377Z,9.20
2023-02-24T07:54:39.386Z,9.30
2023-02-24T07:57:13.481Z,9.40
2023-02-24T07:59:47.033Z,9.40
2023-02-24T08:02:15.036Z,9.50
2023-02-24T08:04:49.911Z,9.60
2023-02-24T08:07:24.771Z,9.60
2023-02-24T08:10:14.597Z,9.80
2023-02-24T08:12:43.065Z,9.90
2023-02-24T08:15:17.529Z,10.20
2023-02-24T08:17:47.487Z,10.40
2023-02-24T08:20:15.545Z,10.60
2023-02-24T08:22:47.037Z,10.90
2023-02-24T08:25:19.785Z,11.10
2023-02-24T08:28:07.368Z,11.30
2023-02-24T08:30:45.856Z,11.50
2023-02-24T08:33:22.268Z,11.70
2023-02-24T08:36:01.613Z,11.80
2023-02-24T08:38:44.742Z,12.00
2023-02-24T08:41:20.098Z,12.20
2023-02-24T08:43:49.340Z,12.30
2023-02-24T08:46:26.541Z,12.40
2023-02-24T08:49:00.108Z,12.50
2023-02-24T08:51:34.689Z,12.60
2023-02-24T08:54:11.419Z,12.80
2023-02-24T08:56:43.703Z,12.90
2023-02-24T08:59:37.073Z,13.10
2023-02-24T09:02:20.620Z,13.20
2023-02-24T09:05:05.216Z,13.30
2023-02-24T09:07:38.878Z,13.30
2023-02-24T09:10:17.800Z,13.30
2023-02-24T09:12:45.907Z,13.30
2023-02-24T09:15:17.146Z,13.30
2023-02-24T09:17:45.499Z,13.30
2023-02-24T09:20:27.826Z,13.30
2023-02-24T09:22:58.063Z,13.30
2023-02-24T09:25:40.867Z,13.20
2023-02-24T09:28:18.494Z,13.30
2023-02-24T09:30:55.158Z,13.30
2023-02-24T09:33:39.682Z,13.40
2023-02-24T09:36:20.407Z,13.50
2023-02-24T09:39:02.253Z,13.50
2023-02-24T09:42:07.977Z,13.60
2023-02-24T09:44:52.809Z,13.70
2023-02-24T09:47:40.020Z,13.80
2023-02-24T09:50:59.103Z,13.90
2023-02-24T09:53:18.564Z,14.00
2023-02-24T09:56:04.049Z,14.30
2023-02-24T09:58:47.886Z,14.70
2023-02-24T10:01:36.925Z,14.90
2023-02-24T10:04:21.348Z,15.20
2023-02-24T10:07:03.112Z,15.50
2023-02-24T10:10:20.885Z,15.70
2023-02-24T10:13:15.097Z,15.80
2023-02-24T10:15:58.374Z,15.80
2023-02-24T10:18:45.788Z,15.80
2023-02-24T10:21:48.444Z,15.90
2023-02-24T10:25:21.131Z,15.90
2023-02-24T10:28:20.153Z,15.90
2023-02-24T10:31:25.652Z,16.00
2023-02-24T10:34:13.301Z,16.10
2023-02-24T10:36:47.740Z,16.30
2023-02-24T10:39:30.340Z,16.50
2023-02-24T10:42:16.245Z,16.70
2023-02-24T10:45:01.308Z,17.00
2023-02-24T10:47:31.472Z,17.20
2023-02-24T10:50:02.357Z,17.30
2023-02-24T10:52:50.543Z,17.40
2023-02-24T10:55:47.432Z,17.60
2023-02-24T10:58:38.154Z,17.50
2023-02-24T11:01:20.848Z,17.50
2023-02-24T11:04:22.661Z,17.40
2023-02-24T11:06:55.605Z,17.50
2023-02-24T11:09:28.659Z,17.40
2023-02-24T11:12:45.849Z,17.30
2023-02-24T11:15:43.495Z,17.20
2023-02-24T11:18:25.141Z,17.30
2023-02-24T11:21:11.200Z,17.00
2023-02-24T11:23:52.972Z,16.90
2023-02-24T11:26:41.713Z,16.80
2023-02-24T11:29:48.940Z,16.70
2023-02-24T11:33:00.188Z,16.70
2023-02-24T11:35:41.940Z,16.80
2023-02-24T11:38:27.922Z,16.80
2023-02-24T11:41:21.236Z,16.80
2023-02-24T11:44:22.412Z,16.80
2023-02-24T11:47:11.485Z,16.80
2023-02-24T11:49:55.258Z,16.90
2023-02-24T11:52:34.291Z,16.90
2023-02-24T11:55:03.930Z,17.00
2023-02-24T11:57:43.554Z,16.90
2023-02-24T12:00:25.672Z,16.80
2023-02-24T12:03:23.541Z,16.70
2023-02-24T12:05:56.532Z,16.70
2023-02-24T12:08:36.207Z,16.70
2023-02-24T12:11:11.487Z,16.80
2023-02-24T12:13:56.455Z,16.90
2023-02-24T12:16:33.310Z,16.90
2023-02-24T12:19:19.869Z,17.00
2023-02-24T12:22:03.251Z,17.00
2023-02-24T12:24:30.512Z,17.00
2023-02-24T12:27:34.031Z,17.10
2023-02-24T12:30:34.117Z,17.20
2023-02-24T12:33:42.946Z,17.20
2023-02-24T12:36:34.633Z,17.30
2023-02-24T12:39:47.497Z,17.30
2023-02-24T12:42:46.791Z,17.30
2023-02-24T12:46:00.621Z,17.20
2023-02-24T12:49:14.983Z,17.10
2023-02-24T12:54:58.732Z,17.10
2023-02-24T12:57:51.179Z,17.20
2023-02-24T13:00:30.237Z,17.20
2023-02-24T13:03:15.469Z,17.30
2023-02-24T13:06:17.002Z,17.30
2023-02-24T13:09:41.844Z,17.20
2023-02-24T13:12:42.139Z,17.20
2023-02-24T13:15:26.644Z,17.10
2023-02-24T13:17:57.991Z,17.10
2023-02-24T13:20:33.916Z,17.00
2023-02-24T13:23:03.482Z,16.90
2023-02-24T13:25:37.453Z,16.80
2023-02-24T13:28:21.295Z,16.70
2023-02-24T13:30:59.220Z,16.60
2023-02-24T13:33:36.345Z,16.60
2023-02-24T13:36:22.074Z,16.50
2023-02-24T13:39:07.846Z,16.40
2023-02-24T13:41:40.998Z,16.40
2023-02-24T13:44:28.326Z,16.30
2023-02-24T13:47:37.118Z,16.30
2023-02-24T13:50:26.804Z,16.40
2023-02-24T13:53:12.197Z,16.40
2023-02-24T13:56:05.030Z,16.40
2023-02-24T13:59:34.393Z,16.30
2023-02-24T14:02:16.958Z,16.40
2023-02-24T14:05:03.419Z,16.30
2023-02-24T14:07:36.085Z,16.30
2023-02-24T14:10:16.307Z,16.20
2023-02-24T14:12:44.829Z,16.20
2023-02-24T14:15:26.455Z,16.10
2023-02-24T14:18:05.943Z,16.10
2023-02-24T14:20:37.613Z,16.10
2023-02-24T14:23:33.003Z,16.10
2023-02-24T14:26:11.766Z,16.10
2023-02-24T14:28:40.501Z,16.10
2023-02-24T14:31:16.735Z,16.00
2023-02-24T14:33:47.064Z,16.00
2023-02-24T14:36:23.892Z,16.00
2023-02-24T14:39:09.275Z,16.10
2023-02-24T14:41:37.048Z,16.00
2023-02-24T14:44:28.981Z,16.00
2023-02-24T14:46:59.823Z,15.90
2023-02-24T14:49:31.189Z,15.90
2023-02-24T14:52:12.030Z,15.90
2023-02-24T14:55:15.216Z,15.90
2023-02-24T14:58:12.101Z,15.80
2023-02-24T15:01:15.388Z,15.70
2023-02-24T15:03:50.529Z,15.70
2023-02-24T15:06:32.318Z,15.60
2023-02-24T15:09:28.201Z,15.60
2023-02-24T15:11:58.736Z,15.50
2023-02-24T15:14:31.080Z,15.40
2023-02-24T15:17:12.335Z,15.40
2023-02-24T15:19:46.531Z,15.30
2023-02-24T15:22:39.510Z,15.30
2023-02-24T15:25:42.015Z,15.30
2023-02-24T15:28:34.450Z,15.20
2023-02-24T15:31:09.109Z,15.00
2023-02-24T15:33:45.323Z,15.00
2023-02-24T15:36:21.069Z,14.90
2023-02-24T15:38:58.490Z,14.90
2023-02-24T15:41:37.770Z,14.90
2023-02-24T15:44:05.129Z,14.80
2023-02-24T15:46:36.188Z,14.90
2023-02-24T15:49:05.973Z,14.80
2023-02-24T15:51:41.821Z,14.80
2023-02-24T15:54:36.549Z,14.70
2023-02-24T15:57:05.412Z,14.60
2023-02-24T15:59:33.075Z,14.70
2023-02-24T16:02:04.079Z,14.60
2023-02-24T16:04:31.557Z,14.60
2023-02-24T16:06:58.854Z,14.60
2023-02-24T16:09:40.648Z,14.50
2023-02-24T16:12:21.740Z,14.50
2023-02-24T16:14:55.978Z,14.40
2023-02-24T16:17:40.090Z,14.40
2023-02-24T16:20:31.594Z,14.30
2023-02-24T16:23:08.052Z,14.30
2023-02-24T16:25:45.002Z,14.30
2023-02-24T16:28:23.219Z,14.30
2023-02-24T16:30:52.073Z,14.20
2023-02-24T16:33:23.693Z,14.20
2023-02-24T16:35:55.714Z,14.20
2023-02-24T16:38:28.188Z,14.20
2023-02-24T16:40:56.314Z,14.10
2023-02-24T16:43:30.994Z,14.00
2023-02-24T16:46:04.386Z,14.00
2023-02-24T16:48:37.279Z,13.90
2023-02-24T16:51:06.734Z,13.90
2023-02-24T16:53:35.455Z,13.80
2023-02-24T16:56:05.246Z,13.80
2023-02-24T16:58:32.986Z,13.80
2023-02-24T17:01:02.927Z,13.70
2023-02-24T17:03:37.360Z,13.70
2023-02-24T17:06:05.044Z,13.60
2023-02-24T17:08:33.086Z,13.60
2023-02-24T17:11:00.951Z,13.60
2023-02-24T17:13:28.697Z,13.50
2023-02-24T17:15:57.293Z,13.50
2023-02-24T17:18:27.250Z,13.40
2023-02-24T17:20:55.777Z,13.40
2023-02-24T17:23:25.059Z,13.40
2023-02-24T17:26:03.440Z,13.30
2023-02-24T17:28:31.638Z,13.30
2023-02-24T17:31:02.809Z,13.30
2023-02-24T17:33:30.275Z,13.20
2023-02-24T17:35:57.512Z,13.20
2023-02-24T17:38:25.067Z,13.20
2023-02-24T17:40:52.851Z,13.10
2023-02-24T17:43:24.338Z,13.10
2023-02-24T17:45:53.293Z,13.00
2023-02-24T17:48:24.932Z,13.00
2023-02-24T17:50:53.554Z,13.00
2023-02-24T17:53:22.693Z,13.00
2023-02-24T17:56:01.919Z,12.90
2023-02-24T17:58:30.618Z,12.90
2023-02-24T18:00:58.468Z,12.90
2023-02-24T18:03:26.470Z,13.00
2023-02-24T18:06:11.298Z,12.90
2023-02-24T18:08:41.004Z,12.90
2023-02-24T18:11:14.448Z,12.90
2023-02-24T18:13:49.125Z,12.90
2023-02-24T18:16:17.657Z,13.00
2023-02-24T18:18:47.103Z,13.00
2023-02-24T18:21:18.602Z,13.00
2023-02-24T18:23:51.120Z,13.00
2023-02-24T18:26:21.907Z,13.00
2023-02-24T18:28:55.713Z,13.00
2023-02-24T18:31:27.914Z,13.00
2023-02-24T18:34:00.424Z,13.00
2023-02-24T18:36:29.149Z,13.00
2023-02-24T18:38:58.891Z,13.00
2023-02-24T18:41:28.204Z,13.00
2023-02-24T18:44:00.239Z,13.00
2023-02-24T18:46:31.442Z,12.90
2023-02-24T18:49:04.538Z,12.90
2023-02-24T18:51:33.222Z,13.00
2023-02-24T18:54:01.793Z,12.90
2023-02-24T18:56:33.652Z,12.90
2023-02-24T18:59:03.735Z,12.90
2023-02-24T19:01:39.001Z,13.00
2023-02-24T19:04:08.861Z,13.00
2023-02-24T19:06:39.267Z,13.00
2023-02-24T19:09:12.249Z,13.00
2023-02-24T19:11:42.345Z,13.00
2023-02-24T19:14:14.360Z,12.90
2023-02-24T19:16:43.297Z,13.00
2023-02-24T19:19:18.187Z,12.90
2023-02-24T19:21:48.637Z,12.90
2023-02-24T19:24:17.500Z,12.90
2023-02-24T19:26:48.555Z,12.90
2023-02-24T19:29:20.617Z,12.90
2023-02-24T19:31:55.275Z,12.90
2023-02-24T19:34:24.789Z,12.90
2023-02-24T19:36:53.850Z,12.90
2023-02-24T19:39:22.629Z,12.90
2023-02-24T19:41:51.545Z,12.80
2023-02-24T19:44:20.083Z,12.80
2023-02-24T19:46:50.037Z,12.80
2023-02-24T19:49:21.593Z,12.80
2023-02-24T19:51:54.692Z,12.70
2023-02-24T19:54:23.506Z,12.70
2023-02-24T19:56:52.661Z,12.80
2023-02-24T19:59:25.109Z,12.80
2023-02-24T20:01:57.340Z,12.80
2023-02-24T20:04:25.789Z,12.70
2023-02-24T20:06:57.877Z,12.70
2023-02-24T20:09:29.488Z,12.60
2023-02-24T20:11:59.647Z,12.50
2023-02-24T20:14:30.066Z,12.50
2023-02-24T20:16:58.716Z,12.40
2023-02-24T20:19:26.763Z,12.30
2023-02-24T20:21:59.146Z,12.30
2023-02-24T20:24:28.326Z,12.20
2023-02-24T20:26:56.588Z,12.20
2023-02-24T20:29:24.861Z,12.20
2023-02-24T20:31:54.033Z,12.20
2023-02-24T20:34:23.053Z,12.20
2023-02-24T20:36:51.613Z,12.20
2023-02-24T20:39:22.632Z,12.20
2023-02-24T20:42:09.883Z,12.20
2023-02-24T20:44:38.489Z,12.20
2023-02-24T20:47:08.691Z,12.10
2023-02-24T20:49:37.874Z,12.10
2023-02-24T20:52:06.872Z,12.00
2023-02-24T20:54:35.795Z,11.90
2023-02-24T20:57:04.325Z,11.80
2023-02-24T20:59:33.567Z,11.70
2023-02-24T21:02:03.609Z,11.60
2023-02-24T21:04:34.893Z,11.50
2023-02-24T21:07:02.813Z,11.40
2023-02-24T21:09:40.567Z,11.40
2023-02-24T21:12:13.075Z,11.50
2023-02-24T21:14:43.718Z,11.50
2023-02-24T21:17:12.655Z,11.50
2023-02-24T21:19:40.474Z,11.50
2023-02-24T21:22:08.879Z,11.50
2023-02-24T21:24:37.141Z,11.60
2023-02-24T21:27:04.986Z,11.60
2023-02-24T21:29:33.468Z,11.60
2023-02-24T21:32:01.153Z,11.50
2023-02-24T21:34:29.558Z,11.40
2023-02-24T21:36:57.218Z,11.20
2023-02-24T21:39:24.670Z,11.20
2023-02-24T21:41:53.523Z,11.10
2023-02-24T21:44:21.735Z,11.10
2023-02-24T21:46:49.823Z,11.00
2023-02-24T21:49:18.378Z,11.10
2023-02-24T21:51:49.031Z,11.10
2023-02-24T21:54:19.512Z,11.20
2023-02-24T21:56:46.779Z,11.20
2023-02-24T21:59:17.123Z,11.20
2023-02-24T22:01:45.698Z,11.20
2023-02-24T22:04:18.852Z,11.20
2023-02-24T22:06:49.276Z,11.20
2023-02-24T22:09:20.512Z,11.10
2023-02-24T22:11:49.360Z,11.20
2023-02-24T22:14:17.195Z,11.20
2023-02-24T22:16:44.886Z,11.20
2023-02-24T22:19:12.893Z,11.20
2023-02-24T22:21:42.501Z,11.30
2023-02-24T22:24:14.849Z,11.20
2023-02-24T22:26:43.020Z,11.30
2023-02-24T22:29:13.215Z,11.30
2023-02-24T22:31:43.529Z,11.40
2023-02-24T22:34:11.116Z,11.40
2023-02-24T22:36:38.580Z,11.50
2023-02-24T22:39:08.914Z,11.50
2023-02-24T22:41:37.012Z,11.50
2023-02-24T22:44:06.724Z,11.60
2023-02-24T22:46:39.221Z,11.60
2023-02-24T22:49:07.493Z,11.50
2023-02-24T22:51:34.979Z,11.50
2023-02-24T22:54:02.616Z,11.50
2023-02-24T22:56:30.824Z,11.40
2023-02-24T22:58:59.156Z,11.40
2023-02-24T23:01:30.930Z,11.40
2023-02-24T23:04:03.453Z,11.30
2023-02-24T23:06:31.829Z,11.30
2023-02-24T23:09:00.789Z,11.30
2023-02-24T23:11:38.679Z,11.20
2023-02-24T23:14:13.975Z,11.20
2023-02-24T23:16:44.607Z,11.20
2023-02-24T23:19:19.881Z,11.20
2023-02-24T23:21:53.802Z,11.10
2023-02-24T23:24:22.238Z,11.10
2023-02-24T23:26:54.095Z,11.10
2023-02-24T23:29:26.594Z,11.10
2023-02-24T23:31:54.043Z,11.00
2023-02-24T23:34:21.388Z,11.00
2023-02-24T23:36:48.762Z,11.00
2023-02-24T23:39:22.963Z,11.00
2023-02-24T23:41:56.974Z,11.00
2023-02-24T23:44:28.833Z,11.00
2023-02-24T23:46:58.236Z,11.10
2023-02-24T23:49:29.417Z,11.10
2023-02-24T23:52:03.783Z,11.20
2023-02-24T23:54:32.102Z,11.20
2023-02-24T23:56:59.435Z,11.30
2023-02-24T23:59:26.748Z,11.20
